createdAt,value
2023-01-25T00:00:55.607Z,102523.88671875
2023-01-25T00:01:55.651Z,102522.4375
2023-01-25T00:02:55.689Z,102520.671875
2023-01-25T00:03:55.593Z,102513.0546875
2023-01-25T00:04:58.331Z,102514.7890625
2023-01-25T00:05:55.567Z,102513.05859375
2023-01-25T00:06:55.629Z,102516.45703125
2023-01-25T00:07:55.651Z,102523.1171875
2023-01-25T00:08:55.645Z,102518.3359375
2023-01-25T00:09:55.878Z,102520.31640625
2023-01-25T00:10:57.561Z,102517.62109375
2023-01-25T00:11:55.875Z,102519.22265625
2023-01-25T00:12:55.650Z,102517.90625
2023-01-25T00:13:55.604Z,102518.41015625
2023-01-25T00:14:55.878Z,102516.421875
2023-01-25T00:15:57.888Z,102515.76171875
2023-01-25T00:16:55.575Z,102512.078125
2023-01-25T00:17:55.552Z,102511.41796875
2023-01-25T00:18:55.651Z,102509.9453125
2023-01-25T00:19:55.873Z,102506.8515625
2023-01-25T00:20:55.549Z,102502.51953125
2023-01-25T00:21:55.676Z,102497.8671875
2023-01-25T00:22:55.649Z,102499.11328125
2023-01-25T00:23:55.676Z,102497.171875
2023-01-25T00:24:55.951Z,102498.28515625
2023-01-25T00:25:57.223Z,102506.28125
2023-01-25T00:27:00.354Z,102507.36328125
2023-01-25T00:27:55.651Z,102507.203125
2023-01-25T00:28:55.531Z,102508.48828125
2023-01-25T00:29:55.889Z,102506.578125
2023-01-25T00:30:55.563Z,102506.80078125
2023-01-25T00:31:55.710Z,102507.85546875
2023-01-25T00:32:55.595Z,102505.92578125
2023-01-25T00:33:55.573Z,102501.41015625
2023-01-25T00:34:55.878Z,102502.984375
2023-01-25T00:35:55.621Z,102505.83984375
2023-01-25T00:36:55.545Z,102501.56640625
2023-01-25T00:37:57.965Z,102503.5390625
2023-01-25T00:38:55.589Z,102501.3203125
2023-01-25T00:39:55.881Z,102501.25
2023-01-25T00:40:55.532Z,102498.92578125
2023-01-25T00:41:56.107Z,102500.1875
2023-01-25T00:42:55.534Z,102493.6875
2023-01-25T00:43:55.637Z,102496.84375
2023-01-25T00:44:55.873Z,102490.5078125
2023-01-25T00:45:55.638Z,102489.1796875
2023-01-25T00:46:55.616Z,102491.59765625
2023-01-25T00:47:55.661Z,102491.65234375
2023-01-25T00:48:57.943Z,102489.96484375
2023-01-25T00:49:55.874Z,102487.80859375
2023-01-25T00:50:55.549Z,102487.46875
2023-01-25T00:51:55.623Z,102485.80078125
2023-01-25T00:52:55.643Z,102485.6640625
2023-01-25T00:53:55.651Z,102489.33203125
2023-01-25T00:54:55.889Z,102489.3984375
2023-01-25T00:55:55.633Z,102487.1484375
2023-01-25T00:56:55.886Z,102482.62109375
2023-01-25T00:57:55.622Z,102481.11328125
2023-01-25T00:58:55.652Z,102485.953125
2023-01-25T01:00:00.332Z,102483.484375
2023-01-25T01:00:55.707Z,102489.04296875
2023-01-25T01:01:55.638Z,102490.05078125
2023-01-25T01:02:55.584Z,102489.7890625
2023-01-25T01:03:55.528Z,102491.95703125
2023-01-25T01:04:55.989Z,102485.37109375
2023-01-25T01:05:55.617Z,102488.03125
2023-01-25T01:06:55.562Z,102486.33203125
2023-01-25T01:07:55.617Z,102487.65625
2023-01-25T01:08:55.640Z,102487.03125
2023-01-25T01:09:55.874Z,102495.3125
2023-01-25T01:10:57.947Z,102497.42578125
2023-01-25T01:11:55.883Z,102496.06640625
2023-01-25T01:12:55.540Z,102496.609375
2023-01-25T01:13:55.613Z,102494.921875
2023-01-25T01:14:55.877Z,102495.19140625
2023-01-25T01:15:55.560Z,102496.87109375
2023-01-25T01:16:57.133Z,102497.98046875
2023-01-25T01:17:55.646Z,102497.16015625
2023-01-25T01:18:55.643Z,102497.59765625
2023-01-25T01:19:55.871Z,102497.78125
2023-01-25T01:20:55.624Z,102498.765625
2023-01-25T01:21:57.961Z,102497.98828125
2023-01-25T01:22:55.665Z,102492.68359375
2023-01-25T01:23:55.633Z,102495.23046875
2023-01-25T01:24:55.865Z,102496.0390625
2023-01-25T01:25:55.628Z,102494.48828125
2023-01-25T01:26:55.886Z,102496.234375
2023-01-25T01:27:55.524Z,102494.95703125
2023-01-25T01:28:55.580Z,102485.43359375
2023-01-25T01:29:55.894Z,102489.7109375
2023-01-25T01:30:55.531Z,102490.796875
2023-01-25T01:31:55.786Z,102490.87890625
2023-01-25T01:32:57.955Z,102490.61328125
2023-01-25T01:33:55.578Z,102490.2578125
2023-01-25T01:34:55.874Z,102487
2023-01-25T01:35:55.595Z,102485.27734375
2023-01-25T01:36:55.627Z,102480.19921875
2023-01-25T01:37:55.564Z,102482.3203125
2023-01-25T01:38:55.631Z,102478.74609375
2023-01-25T01:39:55.865Z,102477.26953125
2023-01-25T01:40:55.595Z,102477.08984375
2023-01-25T01:41:55.910Z,102475.94140625
2023-01-25T01:42:55.650Z,102480.73046875
2023-01-25T01:43:57.889Z,102480.3671875
2023-01-25T01:44:55.882Z,102482.32421875
2023-01-25T01:45:55.657Z,102481.21484375
2023-01-25T01:46:55.547Z,102483.40234375
2023-01-25T01:47:55.564Z,102481.04296875
2023-01-25T01:48:55.628Z,102480.34375
2023-01-25T01:49:55.885Z,102479.70703125
2023-01-25T01:50:55.535Z,102476.3046875
2023-01-25T01:51:55.614Z,102475.74609375
2023-01-25T01:52:55.665Z,102477.12890625
2023-01-25T01:53:55.681Z,102476.625
2023-01-25T01:55:00.330Z,102476.76953125
2023-01-25T01:55:55.652Z,102476.84765625
2023-01-25T01:56:55.875Z,102477.203125
2023-01-25T01:57:55.525Z,102476.78125
2023-01-25T01:58:55.584Z,102471.63671875
2023-01-25T01:59:55.880Z,102472.625
2023-01-25T02:00:55.776Z,102470.60546875
2023-01-25T02:01:55.586Z,102469.94140625
2023-01-25T02:02:55.770Z,102469.19140625
2023-01-25T02:03:55.539Z,102471.83203125
2023-01-25T02:04:55.903Z,102467.30078125
2023-01-25T02:05:57.969Z,102464.2265625
2023-01-25T02:06:55.586Z,102469.0859375
2023-01-25T02:07:55.629Z,102469.90625
2023-01-25T02:08:55.633Z,102471.78125
2023-01-25T02:09:55.882Z,102469.16796875
2023-01-25T02:10:55.508Z,102469.37890625
2023-01-25T02:11:55.882Z,102468.8828125
2023-01-25T02:12:55.545Z,102466.76953125
2023-01-25T02:13:55.538Z,102463.89453125
2023-01-25T02:14:55.879Z,102464.08984375
2023-01-25T02:15:55.599Z,102462.671875
2023-01-25T02:16:57.898Z,102460.68359375
2023-01-25T02:17:55.529Z,102458.49609375
2023-01-25T02:18:55.521Z,102457.04296875
2023-01-25T02:19:55.871Z,102454.921875
2023-01-25T02:20:57.725Z,102458.84375
2023-01-25T02:21:55.549Z,102456.81640625
2023-01-25T02:22:55.643Z,102458.68359375
2023-01-25T02:23:55.688Z,102460.72265625
2023-01-25T02:24:55.879Z,102462.34765625
2023-01-25T02:25:55.544Z,102459.421875
2023-01-25T02:26:55.877Z,102462.0625
2023-01-25T02:27:57.950Z,102462.52734375
2023-01-25T02:28:55.625Z,102463.64453125
2023-01-25T02:29:55.876Z,102463.23828125
2023-01-25T02:30:55.647Z,102456.4609375
2023-01-25T02:31:55.656Z,102454.30078125
2023-01-25T02:32:55.522Z,102454.71484375
2023-01-25T02:33:55.620Z,102453.625
2023-01-25T02:34:55.878Z,102450.6875
2023-01-25T02:35:55.592Z,102451.53515625
2023-01-25T02:36:55.656Z,102450.046875
2023-01-25T02:37:55.519Z,102455.69140625
2023-01-25T02:38:57.941Z,102455.90234375
2023-01-25T02:39:55.878Z,102456.45703125
2023-01-25T02:40:55.647Z,102453.99609375
2023-01-25T02:41:55.889Z,102453.578125
2023-01-25T02:42:55.569Z,102459.44921875
2023-01-25T02:43:55.673Z,102461.45703125
2023-01-25T02:44:55.875Z,102463.34375
2023-01-25T02:45:55.648Z,102461.9296875
2023-01-25T02:46:55.702Z,102464.859375
2023-01-25T02:47:55.515Z,102460.94921875
2023-01-25T02:48:55.559Z,102466.37109375
2023-01-25T02:50:00.374Z,102467.1953125
2023-01-25T02:50:55.574Z,102466.10546875
2023-01-25T02:51:55.626Z,102463.94921875
2023-01-25T02:52:55.604Z,102460.21875
2023-01-25T02:53:55.580Z,102455.71875
2023-01-25T02:54:55.903Z,102454.28125
2023-01-25T02:55:55.627Z,102458.46484375
2023-01-25T02:56:55.927Z,102450.3515625
2023-01-25T02:57:55.658Z,102458.48046875
2023-01-25T02:58:55.657Z,102455.8515625
2023-01-25T02:59:55.878Z,102456.8984375
2023-01-25T03:00:57.968Z,102457.8828125
2023-01-25T03:01:55.648Z,102457.2265625
2023-01-25T03:02:55.658Z,102454.23828125
2023-01-25T03:03:55.569Z,102455.67578125
2023-01-25T03:04:56.013Z,102454.328125
2023-01-25T03:05:55.625Z,102449.50390625
2023-01-25T03:06:55.521Z,102450.32421875
2023-01-25T03:07:55.554Z,102447.86328125
2023-01-25T03:08:55.545Z,102447.08203125
2023-01-25T03:09:55.878Z,102444.01171875
2023-01-25T03:10:55.613Z,102441.29296875
2023-01-25T03:12:00.354Z,102439.41015625
2023-01-25T03:12:55.609Z,102437.8515625
2023-01-25T03:13:55.590Z,102435.5234375
2023-01-25T03:14:55.867Z,102437.35546875
2023-01-25T03:15:55.556Z,102436.71875
2023-01-25T03:16:55.640Z,102438.28515625
2023-01-25T03:17:55.650Z,102432.9453125
2023-01-25T03:18:55.543Z,102438.01953125
2023-01-25T03:19:55.876Z,102439.96484375
2023-01-25T03:20:55.621Z,102440.40234375
2023-01-25T03:21:55.700Z,102444.9921875
2023-01-25T03:22:57.886Z,102445.69140625
2023-01-25T03:23:55.591Z,102443.40625
2023-01-25T03:24:55.873Z,102438.06640625
2023-01-25T03:25:55.657Z,102431.62109375
2023-01-25T03:26:55.900Z,102430.58203125
2023-01-25T03:27:55.647Z,102430.66796875
2023-01-25T03:28:55.554Z,102423.4765625
2023-01-25T03:29:55.880Z,102427.15234375
2023-01-25T03:30:55.676Z,102426.80078125
2023-01-25T03:31:55.750Z,102428.2421875
2023-01-25T03:32:55.653Z,102419.8828125
2023-01-25T03:33:57.929Z,102426.8515625
2023-01-25T03:34:55.895Z,102419.65234375
2023-01-25T03:35:55.628Z,102428.3359375
2023-01-25T03:36:55.656Z,102421.78515625
2023-01-25T03:37:55.583Z,102425.40234375
2023-01-25T03:38:55.656Z,102425.02734375
2023-01-25T03:39:55.878Z,102421.234375
2023-01-25T03:40:55.667Z,102423.9453125
2023-01-25T03:41:56.133Z,102417.21875
2023-01-25T03:42:55.534Z,102415.91015625
2023-01-25T03:43:55.615Z,102417.27734375
2023-01-25T03:45:00.326Z,102416.453125
2023-01-25T03:45:55.576Z,102416.73828125
2023-01-25T03:46:55.666Z,102417.12890625
2023-01-25T03:47:55.563Z,102413.359375
2023-01-25T03:48:55.631Z,102410.48046875
2023-01-25T03:49:55.879Z,102414.5546875
2023-01-25T03:50:55.598Z,102409.37109375
2023-01-25T03:51:55.512Z,102409.671875
2023-01-25T03:52:55.549Z,102413.953125
2023-01-25T03:53:55.645Z,102409.65625
2023-01-25T03:54:55.603Z,102409.6015625
2023-01-25T03:55:57.966Z,102413.19140625
2023-01-25T03:56:55.883Z,102410.2578125
2023-01-25T03:57:55.600Z,102411.4921875
2023-01-25T03:58:55.525Z,102412.1875
2023-01-25T03:59:56.027Z,102413.2734375
2023-01-25T04:00:55.795Z,102412.796875
2023-01-25T04:01:55.727Z,102416.93359375
2023-01-25T04:02:55.665Z,102418.3125
2023-01-25T04:03:55.551Z,102416.64453125
2023-01-25T04:04:55.923Z,102413.9375
2023-01-25T04:05:55.634Z,102416.4375
2023-01-25T04:06:57.937Z,102417.8828125
2023-01-25T04:07:55.661Z,102421.78125
2023-01-25T04:08:55.624Z,102419.80859375
2023-01-25T04:09:55.877Z,102418.375
2023-01-25T04:10:55.619Z,102419.578125
2023-01-25T04:11:55.623Z,102417.46875
2023-01-25T04:12:55.881Z,102417.40625
2023-01-25T04:13:55.694Z,102418.9765625
2023-01-25T04:14:55.882Z,102419.4140625
2023-01-25T04:15:55.638Z,102420.640625
2023-01-25T04:16:55.731Z,102414.796875
2023-01-25T04:17:57.881Z,102411.75
2023-01-25T04:18:55.662Z,102414.17578125
2023-01-25T04:19:55.879Z,102418.67578125
2023-01-25T04:20:55.651Z,102412.23828125
2023-01-25T04:21:55.593Z,102411.92578125
2023-01-25T04:22:55.511Z,102413.3359375
2023-01-25T04:23:55.679Z,102410.70703125
2023-01-25T04:24:55.885Z,102409.78515625
2023-01-25T04:25:55.599Z,102412.5859375
2023-01-25T04:26:55.574Z,102413.7734375
2023-01-25T04:27:55.877Z,102409.75390625
2023-01-25T04:28:57.965Z,102408.78515625
2023-01-25T04:29:55.881Z,102407.98828125
2023-01-25T04:30:55.552Z,102408.26953125
2023-01-25T04:31:55.651Z,102409.20703125
2023-01-25T04:32:55.554Z,102403.61328125
2023-01-25T04:33:55.637Z,102402.90625
2023-01-25T04:34:55.876Z,102401.37890625
2023-01-25T04:35:55.655Z,102401.97265625
2023-01-25T04:36:55.647Z,102398.5859375
2023-01-25T04:37:55.605Z,102400.4296875
2023-01-25T04:38:55.862Z,102397.34765625
2023-01-25T04:40:00.284Z,102396.30078125
2023-01-25T04:40:55.616Z,102401.0703125
2023-01-25T04:41:55.531Z,102397.4375
2023-01-25T04:42:55.879Z,102398.28125
2023-01-25T04:43:55.646Z,102393.9453125
2023-01-25T04:44:55.884Z,102393.98046875
2023-01-25T04:45:55.673Z,102391.30078125
2023-01-25T04:46:55.649Z,102392.1328125
2023-01-25T04:47:55.540Z,102390.1484375
2023-01-25T04:48:55.653Z,102389.2265625
2023-01-25T04:49:55.876Z,102388.5234375
2023-01-25T04:50:57.926Z,102385.125
2023-01-25T04:51:55.535Z,102385.14453125
2023-01-25T04:52:55.621Z,102386.640625
2023-01-25T04:53:55.541Z,102383.046875
2023-01-25T04:54:55.878Z,102386.0546875
2023-01-25T04:55:55.589Z,102384.23046875
2023-01-25T04:56:55.536Z,102383.41015625
2023-01-25T04:57:55.873Z,102378.69921875
2023-01-25T04:58:55.647Z,102379.08984375
2023-01-25T04:59:55.883Z,102369.640625
2023-01-25T05:00:55.678Z,102364.93359375
2023-01-25T05:01:57.985Z,102367.77734375
2023-01-25T05:02:55.557Z,102370.57421875
2023-01-25T05:03:55.609Z,102364.875
2023-01-25T05:04:55.922Z,102365.39453125
2023-01-25T05:05:55.643Z,102366.1171875
2023-01-25T05:06:55.647Z,102366.44921875
2023-01-25T05:07:55.652Z,102367.06640625
2023-01-25T05:08:55.624Z,102360.7734375
2023-01-25T05:09:55.889Z,102358.97265625
2023-01-25T05:10:55.602Z,102356.953125
2023-01-25T05:11:55.612Z,102353.2421875
2023-01-25T05:13:00.336Z,102348.35546875
2023-01-25T05:13:55.605Z,102355.83984375
2023-01-25T05:14:55.884Z,102350.64453125
2023-01-25T05:15:55.592Z,102350.98046875
2023-01-25T05:16:55.593Z,102352.00390625
2023-01-25T05:17:55.535Z,102352.21484375
2023-01-25T05:18:55.571Z,102352.18359375
2023-01-25T05:19:55.884Z,102352.1171875
2023-01-25T05:20:55.550Z,102355.04296875
2023-01-25T05:21:55.694Z,102351.42578125
2023-01-25T05:22:55.642Z,102352.36328125
2023-01-25T05:23:57.974Z,102353.44921875
2023-01-25T05:24:55.884Z,102355.33203125
2023-01-25T05:25:55.526Z,102359.75
2023-01-25T05:26:55.655Z,102358.31640625
2023-01-25T05:27:55.873Z,102356.45703125
2023-01-25T05:28:55.667Z,102359.89453125
2023-01-25T05:29:55.904Z,102356.6328125
2023-01-25T05:30:55.605Z,102360.109375
2023-01-25T05:31:55.591Z,102357.78125
2023-01-25T05:32:55.642Z,102352.30859375
2023-01-25T05:33:55.588Z,102349.37109375
2023-01-25T05:35:01.088Z,102348.4375
2023-01-25T05:35:55.586Z,102345.765625
2023-01-25T05:36:55.536Z,102345.23046875
2023-01-25T05:37:55.741Z,102343.9296875
2023-01-25T05:38:55.617Z,102344.72265625
2023-01-25T05:39:55.894Z,102342.40625
2023-01-25T05:40:55.530Z,102340.91796875
2023-01-25T05:41:55.621Z,102340.69921875
2023-01-25T05:42:55.921Z,102340.24609375
2023-01-25T05:43:55.587Z,102340.27734375
2023-01-25T05:44:55.876Z,102342.0390625
2023-01-25T05:45:58.004Z,102339.671875
2023-01-25T05:46:55.530Z,102339.56640625
2023-01-25T05:47:55.613Z,102338.53125
2023-01-25T05:48:55.530Z,102341.08203125
2023-01-25T05:49:55.662Z,102339.79296875
2023-01-25T05:50:55.587Z,102338.19921875
2023-01-25T05:51:55.620Z,102338.20703125
2023-01-25T05:52:55.657Z,102334.30078125
2023-01-25T05:53:55.521Z,102331.83984375
2023-01-25T05:54:55.880Z,102335.53515625
2023-01-25T05:55:55.509Z,102330.359375
2023-01-25T05:56:57.978Z,102332.16015625
2023-01-25T05:57:55.872Z,102333.05859375
2023-01-25T05:58:55.549Z,102334.2734375
2023-01-25T05:59:55.906Z,102333.37109375
2023-01-25T06:00:55.578Z,102333.83984375
2023-01-25T06:01:55.559Z,102330.3359375
2023-01-25T06:02:55.684Z,102333.88671875
2023-01-25T06:03:55.521Z,102331.921875
2023-01-25T06:04:55.538Z,102329.28125
2023-01-25T06:05:55.649Z,102334.2578125
2023-01-25T06:06:55.670Z,102334.65234375
2023-01-25T06:07:57.894Z,102334.98828125
2023-01-25T06:08:55.532Z,102334.6171875
2023-01-25T06:09:55.889Z,102334.94140625
2023-01-25T06:10:55.543Z,102334.59765625
2023-01-25T06:11:55.540Z,102333.3671875
2023-01-25T06:12:55.874Z,102335.03515625
2023-01-25T06:13:55.581Z,102335.4375
2023-01-25T06:14:55.871Z,102336.2890625
2023-01-25T06:15:55.756Z,102337.73828125
2023-01-25T06:16:55.594Z,102336.5703125
2023-01-25T06:17:55.572Z,102333.796875
2023-01-25T06:18:57.868Z,102337.3515625
2023-01-25T06:19:55.883Z,102338.72265625
2023-01-25T06:20:55.603Z,102336.64453125
2023-01-25T06:21:55.623Z,102334.58984375
2023-01-25T06:22:55.535Z,102332.88671875
2023-01-25T06:23:55.611Z,102337.36328125
2023-01-25T06:24:55.883Z,102337.3515625
2023-01-25T06:25:55.673Z,102335.328125
2023-01-25T06:26:55.649Z,102336.83984375
2023-01-25T06:27:55.895Z,102334.2734375
2023-01-25T06:28:55.666Z,102330.109375
2023-01-25T06:30:00.324Z,102333.203125
2023-01-25T06:30:55.734Z,102330.2578125
2023-01-25T06:31:55.615Z,102331.08203125
2023-01-25T06:32:55.651Z,102327.28125
2023-01-25T06:33:55.640Z,102326.69921875
2023-01-25T06:34:55.873Z,102329.3203125
2023-01-25T06:35:55.536Z,102329.09375
2023-01-25T06:36:55.623Z,102329.2265625
2023-01-25T06:37:55.638Z,102335.5078125
2023-01-25T06:38:55.624Z,102333.15234375
2023-01-25T06:39:55.885Z,102328.28125
2023-01-25T06:40:57.921Z,102334.1953125
2023-01-25T06:41:55.541Z,102333.29296875
2023-01-25T06:42:55.876Z,102334.19921875
2023-01-25T06:43:55.570Z,102337.05078125
2023-01-25T06:44:55.874Z,102340.921875
2023-01-25T06:45:55.665Z,102340.3046875
2023-01-25T06:46:55.731Z,102337.2421875
2023-01-25T06:47:55.640Z,102342.015625
2023-01-25T06:48:55.652Z,102343.890625
2023-01-25T06:49:55.885Z,102345.59375
2023-01-25T06:50:55.552Z,102344.21484375
2023-01-25T06:51:57.850Z,102344.7421875
2023-01-25T06:52:55.588Z,102340.53125
2023-01-25T06:53:55.593Z,102335.015625
2023-01-25T06:54:55.881Z,102335.9765625
2023-01-25T06:55:55.577Z,102335.98046875
2023-01-25T06:56:55.638Z,102337.6484375
2023-01-25T06:57:55.880Z,102329.8984375
2023-01-25T06:58:55.669Z,102332.1015625
2023-01-25T06:59:55.878Z,102330.078125
2023-01-25T07:00:55.537Z,102331.796875
2023-01-25T07:01:55.662Z,102330.5625
2023-01-25T07:02:57.984Z,102333.3515625
2023-01-25T07:03:55.550Z,102335.83203125
2023-01-25T07:04:55.898Z,102334.56640625
2023-01-25T07:05:55.480Z,102332.609375
2023-01-25T07:06:55.567Z,102333.4609375
2023-01-25T07:07:55.539Z,102329.00390625
2023-01-25T07:08:55.637Z,102332.08984375
2023-01-25T07:09:55.878Z,102329.99609375
2023-01-25T07:10:55.625Z,102331.69140625
2023-01-25T07:11:55.627Z,102331.10546875
2023-01-25T07:12:55.877Z,102331.62890625
2023-01-25T07:13:57.906Z,102333.3828125
2023-01-25T07:14:55.921Z,102329.09765625
2023-01-25T07:15:55.654Z,102333.66015625
2023-01-25T07:16:55.538Z,102332.828125
2023-01-25T07:17:57.933Z,102331.8828125
2023-01-25T07:18:55.522Z,102329.0859375
2023-01-25T07:19:55.884Z,102330.26171875
2023-01-25T07:20:55.557Z,102330.60546875
2023-01-25T07:21:55.638Z,102331.12890625
2023-01-25T07:22:55.644Z,102331.19921875
2023-01-25T07:23:55.656Z,102335.04296875
2023-01-25T07:25:00.307Z,102330.7890625
2023-01-25T07:25:55.515Z,102333.01953125
2023-01-25T07:26:55.645Z,102334.1953125
2023-01-25T07:27:55.595Z,102331.73828125
2023-01-25T07:28:55.632Z,102332.12890625
2023-01-25T07:29:55.904Z,102334.9453125
2023-01-25T07:30:55.639Z,102335.33203125
2023-01-25T07:31:55.624Z,102340.08203125
2023-01-25T07:32:55.664Z,102341.04296875
2023-01-25T07:33:55.642Z,102338.28125
2023-01-25T07:34:55.897Z,102338.84765625
2023-01-25T07:35:57.992Z,102336.8515625
2023-01-25T07:36:55.620Z,102334.171875
2023-01-25T07:37:55.590Z,102336.26953125
2023-01-25T07:38:55.619Z,102331.53125
2023-01-25T07:39:55.989Z,102331.13671875
2023-01-25T07:40:55.523Z,102328.484375
2023-01-25T07:41:55.593Z,102334.81640625
2023-01-25T07:42:55.873Z,102335.90625
2023-01-25T07:43:55.591Z,102335.01953125
2023-01-25T07:44:55.874Z,102329.17578125
2023-01-25T07:45:55.618Z,102329.49609375
2023-01-25T07:46:57.984Z,102328.36328125
2023-01-25T07:47:55.509Z,102327.2578125
2023-01-25T07:48:55.598Z,102329.6875
2023-01-25T07:49:55.886Z,102324.00390625
2023-01-25T07:50:55.598Z,102326.7890625
2023-01-25T07:51:55.571Z,102331.68359375
2023-01-25T07:52:55.541Z,102328.7265625
2023-01-25T07:53:55.592Z,102330.0703125
2023-01-25T07:54:55.882Z,102324.671875
2023-01-25T07:55:55.558Z,102330.03515625
2023-01-25T07:56:55.602Z,102327.140625
2023-01-25T07:58:00.315Z,102326.99609375
2023-01-25T07:58:55.658Z,102335.35546875
2023-01-25T07:59:55.886Z,102328.56640625
2023-01-25T08:00:55.586Z,102329.26953125
2023-01-25T08:01:55.544Z,102328.65234375
2023-01-25T08:02:55.624Z,102327.4609375
2023-01-25T08:03:55.523Z,102330.7265625
2023-01-25T08:04:55.654Z,102333.55859375
2023-01-25T08:05:55.516Z,102328.83203125
2023-01-25T08:06:55.529Z,102332.21484375
2023-01-25T08:07:55.635Z,102328.3828125
2023-01-25T08:08:57.861Z,102328.63671875
2023-01-25T08:09:55.881Z,102329.4140625
2023-01-25T08:10:55.523Z,102325.31640625
2023-01-25T08:11:55.529Z,102332.4765625
2023-01-25T08:12:55.874Z,102329.3125
2023-01-25T08:13:55.517Z,102331.68359375
2023-01-25T08:14:55.876Z,102332.45703125
2023-01-25T08:15:55.634Z,102329.390625
2023-01-25T08:16:55.630Z,102331.40625
2023-01-25T08:17:55.529Z,102326.0234375
2023-01-25T08:18:55.595Z,102329.546875
2023-01-25T08:20:00.308Z,102329.47265625
2023-01-25T08:20:55.639Z,102329.15234375
2023-01-25T08:21:55.684Z,102328.171875
2023-01-25T08:22:55.571Z,102332.2109375
2023-01-25T08:23:55.763Z,102335.4765625
2023-01-25T08:24:55.881Z,102335
2023-01-25T08:25:55.947Z,102332.26953125
2023-01-25T08:26:55.636Z,102333.09765625
2023-01-25T08:27:55.915Z,102339.16015625
2023-01-25T08:28:55.616Z,102333.125
2023-01-25T08:29:55.897Z,102332.3515625
2023-01-25T08:30:57.866Z,102332.265625
2023-01-25T08:31:55.669Z,102329.8984375
2023-01-25T08:32:55.617Z,102329.7890625
2023-01-25T08:33:55.637Z,102330.90625
2023-01-25T08:34:55.639Z,102330.8984375
2023-01-25T08:35:55.659Z,102329.3359375
2023-01-25T08:36:55.631Z,102329.12109375
2023-01-25T08:37:55.539Z,102327.3125
2023-01-25T08:38:55.614Z,102325.4765625
2023-01-25T08:39:55.881Z,102324.37890625
2023-01-25T08:40:55.558Z,102324.33203125
2023-01-25T08:41:57.882Z,102319.4375
2023-01-25T08:42:55.874Z,102321.1640625
2023-01-25T08:43:55.684Z,102318.453125
2023-01-25T08:44:55.881Z,102319.1015625
2023-01-25T08:45:55.589Z,102320.9296875
2023-01-25T08:46:55.617Z,102318.40234375
2023-01-25T08:47:55.548Z,102318.75
2023-01-25T08:48:55.553Z,102320.80859375
2023-01-25T08:49:55.875Z,102317.7734375
2023-01-25T08:50:55.516Z,102320.5
2023-01-25T08:51:55.635Z,102314.5625
2023-01-25T08:52:57.975Z,102314.05859375
2023-01-25T08:53:55.532Z,102314.66015625
2023-01-25T08:54:55.895Z,102307.515625
2023-01-25T08:55:55.555Z,102308.4375
2023-01-25T08:56:55.590Z,102309.09765625
2023-01-25T08:57:56.618Z,102307.3046875
2023-01-25T08:58:55.627Z,102307.59375
2023-01-25T08:59:55.870Z,102305.0859375
2023-01-25T09:00:55.645Z,102304.01171875
2023-01-25T09:01:55.673Z,102305.3359375
2023-01-25T09:02:55.608Z,102305.0703125
2023-01-25T09:03:57.985Z,102304.28515625
2023-01-25T09:04:55.910Z,102303.71484375
2023-01-25T09:05:55.678Z,102303.03125
2023-01-25T09:06:55.611Z,102297.6796875
2023-01-25T09:07:55.516Z,102301.67578125
2023-01-25T09:08:55.664Z,102297.88671875
2023-01-25T09:09:55.884Z,102299.19921875
2023-01-25T09:10:55.601Z,102298.36328125
2023-01-25T09:11:55.566Z,102296.8671875
2023-01-25T09:12:55.873Z,102300.37109375
2023-01-25T09:13:55.629Z,102301.80078125
2023-01-25T09:15:00.346Z,102299.2734375
2023-01-25T09:15:55.563Z,102299.08984375
2023-01-25T09:16:55.540Z,102303.90625
2023-01-25T09:17:55.596Z,102304.73046875
2023-01-25T09:18:55.613Z,102307.046875
2023-01-25T09:19:55.879Z,102304.8671875
2023-01-25T09:20:55.638Z,102304.20703125
2023-01-25T09:21:55.658Z,102300.57421875
2023-01-25T09:22:55.579Z,102304.43359375
2023-01-25T09:24:06.366Z,102298.25
2023-01-25T09:24:55.879Z,102302.203125
2023-01-25T09:25:57.886Z,102301.6640625
2023-01-25T09:26:59.752Z,102299.72265625
2023-01-25T09:27:55.888Z,102298.2421875
2023-01-25T09:28:55.691Z,102301.4765625
2023-01-25T09:30:02.135Z,102299.1171875
2023-01-25T09:31:10.922Z,102295.7109375
2023-01-25T09:31:55.747Z,102294.25390625
2023-01-25T09:32:55.642Z,102295.1796875
2023-01-25T09:33:55.631Z,102292.7578125
2023-01-25T09:34:55.891Z,102294.93359375
2023-01-25T09:35:55.647Z,102292.17578125
2023-01-25T09:36:57.947Z,102290.6171875
2023-01-25T09:37:55.519Z,102290.1953125
2023-01-25T09:38:55.600Z,102290.9453125
2023-01-25T09:39:55.997Z,102286.75
2023-01-25T09:40:55.652Z,102288.03125
2023-01-25T09:41:58.174Z,102291.20703125
2023-01-25T09:42:55.884Z,102292.1640625
2023-01-25T09:43:56.812Z,102289.08984375
2023-01-25T09:44:55.990Z,102292.62109375
2023-01-25T09:45:55.565Z,102291.328125
2023-01-25T09:46:55.607Z,102288.67578125
2023-01-25T09:47:57.926Z,102286.37890625
2023-01-25T09:49:06.816Z,102290.6015625
2023-01-25T09:49:55.876Z,102287.95703125
2023-01-25T09:50:55.567Z,102288.33984375
2023-01-25T09:51:55.538Z,102290.1640625
2023-01-25T09:52:55.605Z,102285.75390625
2023-01-25T09:53:55.586Z,102288.3125
2023-01-25T09:54:55.887Z,102293.5703125
2023-01-25T09:55:55.684Z,102289.4140625
2023-01-25T09:56:55.541Z,102290.31640625
2023-01-25T09:57:55.873Z,102290.17578125
2023-01-25T09:58:57.963Z,102287.75